sensor_id;sensor_type;location;lat;lon;timestamp;temperature;humidity
4374;DHT22;2201;51.100;6.814;2023-06-22T00:02:07;23.80;84.80
4374;DHT22;2201;51.100;6.814;2023-06-22T00:04:34;23.80;84.70
4374;DHT22;2201;51.100;6.814;2023-06-22T00:07:00;23.80;84.80
4374;DHT22;2201;51.100;6.814;2023-06-22T00:09:29;23.80;84.80
4374;DHT22;2201;51.100;6.814;2023-06-22T00:11:55;23.80;84.50
4374;DHT22;2201;51.100;6.814;2023-06-22T00:14:22;23.80;84.50
4374;DHT22;2201;51.100;6.814;2023-06-22T00:16:49;23.70;84.70
4374;DHT22;2201;51.100;6.814;2023-06-22T00:19:20;23.70;84.90
4374;DHT22;2201;51.100;6.814;2023-06-22T00:21:47;23.70;84.60
4374;DHT22;2201;51.100;6.814;2023-06-22T00:24:18;23.70;84.70
4374;DHT22;2201;51.100;6.814;2023-06-22T00:26:47;23.70;84.80
4374;DHT22;2201;51.100;6.814;2023-06-22T00:29:14;23.70;84.90
4374;DHT22;2201;51.100;6.814;2023-06-22T00:31:41;23.70;85.30
4374;DHT22;2201;51.100;6.814;2023-06-22T00:34:08;23.60;85.10
4374;DHT22;2201;51.100;6.814;2023-06-22T00:36:35;23.60;85.20
4374;DHT22;2201;51.100;6.814;2023-06-22T00:39:02;23.60;85.20
4374;DHT22;2201;51.100;6.814;2023-06-22T00:41:29;23.60;85.30
4374;DHT22;2201;51.100;6.814;2023-06-22T00:43:57;23.60;85.40
4374;DHT22;2201;51.100;6.814;2023-06-22T00:46:24;23.50;85.30
4374;DHT22;2201;51.100;6.814;2023-06-22T00:48:52;23.50;85.30
4374;DHT22;2201;51.100;6.814;2023-06-22T00:51:22;23.50;85.40
4374;DHT22;2201;51.100;6.814;2023-06-22T00:53:50;23.50;85.50
4374;DHT22;2201;51.100;6.814;2023-06-22T00:56:17;23.50;85.20
4374;DHT22;2201;51.100;6.814;2023-06-22T00:58:50;23.40;85.40
4374;DHT22;2201;51.100;6.814;2023-06-22T01:01:20;23.40;85.50
4374;DHT22;2201;51.100;6.814;2023-06-22T01:03:49;23.40;85.20
4374;DHT22;2201;51.100;6.814;2023-06-22T01:06:21;23.40;85.20
4374;DHT22;2201;51.100;6.814;2023-06-22T01:08:57;23.40;85.50
4374;DHT22;2201;51.100;6.814;2023-06-22T01:11:34;23.30;85.50
4374;DHT22;2201;51.100;6.814;2023-06-22T01:14:11;23.30;86.00
4374;DHT22;2201;51.100;6.814;2023-06-22T01:16:43;23.30;85.50
4374;DHT22;2201;51.100;6.814;2023-06-22T01:19:23;23.20;85.60
4374;DHT22;2201;51.100;6.814;2023-06-22T01:21:55;23.20;85.80
4374;DHT22;2201;51.100;6.814;2023-06-22T01:24:27;23.20;85.90
4374;DHT22;2201;51.100;6.814;2023-06-22T01:27:04;23.20;86.00
4374;DHT22;2201;51.100;6.814;2023-06-22T01:29:38;23.20;86.00
4374;DHT22;2201;51.100;6.814;2023-06-22T01:32:06;23.10;86.30
4374;DHT22;2201;51.100;6.814;2023-06-22T01:34:34;23.10;86.40
4374;DHT22;2201;51.100;6.814;2023-06-22T01:40:02;23.10;86.50
4374;DHT22;2201;51.100;6.814;2023-06-22T01:42:31;23.00;86.70
4374;DHT22;2201;51.100;6.814;2023-06-22T01:45:00;23.00;86.80
4374;DHT22;2201;51.100;6.814;2023-06-22T01:47:28;23.00;86.80
4374;DHT22;2201;51.100;6.814;2023-06-22T01:49:55;22.90;87.10
4374;DHT22;2201;51.100;6.814;2023-06-22T01:52:22;22.90;87.80
4374;DHT22;2201;51.100;6.814;2023-06-22T01:54:49;22.90;87.40
4374;DHT22;2201;51.100;6.814;2023-06-22T01:57:16;22.90;88.10
4374;DHT22;2201;51.100;6.814;2023-06-22T01:59:48;22.90;87.80
4374;DHT22;2201;51.100;6.814;2023-06-22T02:02:20;22.90;88.40
4374;DHT22;2201;51.100;6.814;2023-06-22T02:04:55;22.80;88.40
4374;DHT22;2201;51.100;6.814;2023-06-22T02:07:23;22.80;88.50
4374;DHT22;2201;51.100;6.814;2023-06-22T02:09:55;22.80;88.60
4374;DHT22;2201;51.100;6.814;2023-06-22T02:12:25;22.80;89.00
4374;DHT22;2201;51.100;6.814;2023-06-22T02:14:53;22.80;89.10
4374;DHT22;2201;51.100;6.814;2023-06-22T02:17:22;22.70;89.30
4374;DHT22;2201;51.100;6.814;2023-06-22T02:19:50;22.70;89.80
4374;DHT22;2201;51.100;6.814;2023-06-22T02:22:16;22.70;89.80
4374;DHT22;2201;51.100;6.814;2023-06-22T02:24:43;22.70;90.10
4374;DHT22;2201;51.100;6.814;2023-06-22T02:27:10;22.70;90.40
4374;DHT22;2201;51.100;6.814;2023-06-22T02:29:38;22.60;90.70
4374;DHT22;2201;51.100;6.814;2023-06-22T02:32:05;22.70;90.10
4374;DHT22;2201;51.100;6.814;2023-06-22T02:34:52;22.70;90.70
4374;DHT22;2201;51.100;6.814;2023-06-22T02:38:17;22.70;90.60
4374;DHT22;2201;51.100;6.814;2023-06-22T02:40:44;22.60;90.80
4374;DHT22;2201;51.100;6.814;2023-06-22T02:43:11;22.70;90.60
4374;DHT22;2201;51.100;6.814;2023-06-22T02:45:38;22.60;91.00
4374;DHT22;2201;51.100;6.814;2023-06-22T02:48:05;22.60;90.90
4374;DHT22;2201;51.100;6.814;2023-06-22T02:50:34;22.60;91.10
4374;DHT22;2201;51.100;6.814;2023-06-22T02:53:00;22.60;91.20
4374;DHT22;2201;51.100;6.814;2023-06-22T02:55:27;22.60;91.50
4374;DHT22;2201;51.100;6.814;2023-06-22T02:57:54;22.60;91.70
4374;DHT22;2201;51.100;6.814;2023-06-22T03:00:22;22.60;91.70
4374;DHT22;2201;51.100;6.814;2023-06-22T03:02:56;22.60;91.70
4374;DHT22;2201;51.100;6.814;2023-06-22T03:05:24;22.60;91.90
4374;DHT22;2201;51.100;6.814;2023-06-22T03:07:52;22.60;91.80
4374;DHT22;2201;51.100;6.814;2023-06-22T03:10:20;22.60;91.90
4374;DHT22;2201;51.100;6.814;2023-06-22T03:12:46;22.60;91.90
4374;DHT22;2201;51.100;6.814;2023-06-22T03:15:13;22.60;92.10
4374;DHT22;2201;51.100;6.814;2023-06-22T03:17:40;22.60;92.00
4374;DHT22;2201;51.100;6.814;2023-06-22T03:20:08;22.60;92.30
4374;DHT22;2201;51.100;6.814;2023-06-22T03:22:40;22.60;92.00
4374;DHT22;2201;51.100;6.814;2023-06-22T03:25:10;22.60;91.90
4374;DHT22;2201;51.100;6.814;2023-06-22T03:27:38;22.60;91.80
4374;DHT22;2201;51.100;6.814;2023-06-22T03:30:06;22.60;92.20
4374;DHT22;2201;51.100;6.814;2023-06-22T03:32:35;22.60;91.90
4374;DHT22;2201;51.100;6.814;2023-06-22T03:35:02;22.60;92.20
4374;DHT22;2201;51.100;6.814;2023-06-22T03:37:30;22.60;91.80
4374;DHT22;2201;51.100;6.814;2023-06-22T03:39:57;22.70;92.00
4374;DHT22;2201;51.100;6.814;2023-06-22T03:42:26;22.70;91.60
4374;DHT22;2201;51.100;6.814;2023-06-22T03:44:53;22.70;92.10
4374;DHT22;2201;51.100;6.814;2023-06-22T03:47:20;22.60;91.90
4374;DHT22;2201;51.100;6.814;2023-06-22T03:49:46;22.60;92.10
4374;DHT22;2201;51.100;6.814;2023-06-22T03:52:13;22.60;92.00
4374;DHT22;2201;51.100;6.814;2023-06-22T03:54:42;22.60;92.00
4374;DHT22;2201;51.100;6.814;2023-06-22T03:57:41;22.60;92.00
4374;DHT22;2201;51.100;6.814;2023-06-22T04:00:09;22.60;92.30
4374;DHT22;2201;51.100;6.814;2023-06-22T04:02:36;22.60;92.20
4374;DHT22;2201;51.100;6.814;2023-06-22T04:05:05;22.60;92.40
4374;DHT22;2201;51.100;6.814;2023-06-22T04:07:32;22.60;92.40
4374;DHT22;2201;51.100;6.814;2023-06-22T04:09:59;22.60;92.70
4374;DHT22;2201;51.100;6.814;2023-06-22T04:12:27;22.60;92.40
4374;DHT22;2201;51.100;6.814;2023-06-22T04:14:56;22.70;92.10
4374;DHT22;2201;51.100;6.814;2023-06-22T04:17:24;22.70;92.30
4374;DHT22;2201;51.100;6.814;2023-06-22T04:19:51;22.70;92.50
4374;DHT22;2201;51.100;6.814;2023-06-22T04:22:41;22.70;92.40
4374;DHT22;2201;51.100;6.814;2023-06-22T04:25:22;22.70;92.40
4374;DHT22;2201;51.100;6.814;2023-06-22T04:27:49;22.70;92.10
4374;DHT22;2201;51.100;6.814;2023-06-22T04:30:17;22.70;92.10
4374;DHT22;2201;51.100;6.814;2023-06-22T04:32:44;22.70;92.50
4374;DHT22;2201;51.100;6.814;2023-06-22T04:35:21;22.70;92.50
4374;DHT22;2201;51.100;6.814;2023-06-22T04:38:00;22.70;92.30
4374;DHT22;2201;51.100;6.814;2023-06-22T04:40:30;22.70;92.70
4374;DHT22;2201;51.100;6.814;2023-06-22T04:42:56;22.70;92.30
4374;DHT22;2201;51.100;6.814;2023-06-22T04:45:25;22.70;92.40
4374;DHT22;2201;51.100;6.814;2023-06-22T04:47:55;22.80;91.90
4374;DHT22;2201;51.100;6.814;2023-06-22T04:50:22;22.80;92.10
4374;DHT22;2201;51.100;6.814;2023-06-22T04:52:50;22.80;92.20
4374;DHT22;2201;51.100;6.814;2023-06-22T04:55:17;22.80;92.60
4374;DHT22;2201;51.100;6.814;2023-06-22T04:57:48;22.90;92.70
4374;DHT22;2201;51.100;6.814;2023-06-22T05:00:21;22.90;92.50
4374;DHT22;2201;51.100;6.814;2023-06-22T05:02:53;23.00;92.50
4374;DHT22;2201;51.100;6.814;2023-06-22T05:05:22;23.00;92.70
4374;DHT22;2201;51.100;6.814;2023-06-22T05:07:51;23.00;92.30
4374;DHT22;2201;51.100;6.814;2023-06-22T05:13:28;23.10;92.50
4374;DHT22;2201;51.100;6.814;2023-06-22T05:15:57;23.10;92.20
4374;DHT22;2201;51.100;6.814;2023-06-22T05:18:29;23.10;92.00
4374;DHT22;2201;51.100;6.814;2023-06-22T05:21:35;23.20;91.90
4374;DHT22;2201;51.100;6.814;2023-06-22T05:24:19;23.20;91.90
4374;DHT22;2201;51.100;6.814;2023-06-22T05:26:46;23.30;91.50
4374;DHT22;2201;51.100;6.814;2023-06-22T05:29:13;23.30;91.70
4374;DHT22;2201;51.100;6.814;2023-06-22T05:31:43;23.40;92.10
4374;DHT22;2201;51.100;6.814;2023-06-22T05:34:12;23.40;91.80
4374;DHT22;2201;51.100;6.814;2023-06-22T05:36:54;23.40;91.90
4374;DHT22;2201;51.100;6.814;2023-06-22T05:39:38;23.50;91.80
4374;DHT22;2201;51.100;6.814;2023-06-22T05:42:05;23.50;91.50
4374;DHT22;2201;51.100;6.814;2023-06-22T05:44:32;23.50;91.60
4374;DHT22;2201;51.100;6.814;2023-06-22T05:47:03;23.50;91.40
4374;DHT22;2201;51.100;6.814;2023-06-22T05:49:45;23.60;91.30
4374;DHT22;2201;51.100;6.814;2023-06-22T05:52:12;23.60;91.80
4374;DHT22;2201;51.100;6.814;2023-06-22T05:54:52;23.60;91.80
4374;DHT22;2201;51.100;6.814;2023-06-22T05:57:19;23.50;91.60
4374;DHT22;2201;51.100;6.814;2023-06-22T05:59:47;23.50;91.80
4374;DHT22;2201;51.100;6.814;2023-06-22T06:02:17;23.50;91.90
4374;DHT22;2201;51.100;6.814;2023-06-22T06:04:46;23.40;91.80
4374;DHT22;2201;51.100;6.814;2023-06-22T06:07:13;23.40;91.90
4374;DHT22;2201;51.100;6.814;2023-06-22T06:09:39;23.40;92.30
4374;DHT22;2201;51.100;6.814;2023-06-22T06:12:07;23.30;93.80
4374;DHT22;2201;51.100;6.814;2023-06-22T06:14:34;23.20;96.80
4374;DHT22;2201;51.100;6.814;2023-06-22T06:17:01;23.10;97.80
4374;DHT22;2201;51.100;6.814;2023-06-22T06:19:28;23.00;98.20
4374;DHT22;2201;51.100;6.814;2023-06-22T06:21:56;22.90;98.20
4374;DHT22;2201;51.100;6.814;2023-06-22T06:24:23;22.90;98.20
4374;DHT22;2201;51.100;6.814;2023-06-22T06:26:49;22.90;98.20
4374;DHT22;2201;51.100;6.814;2023-06-22T06:29:16;22.80;98.20
4374;DHT22;2201;51.100;6.814;2023-06-22T06:31:43;22.80;98.20
4374;DHT22;2201;51.100;6.814;2023-06-22T06:34:10;22.70;98.20
4374;DHT22;2201;51.100;6.814;2023-06-22T06:36:37;22.60;98.20
4374;DHT22;2201;51.100;6.814;2023-06-22T06:39:10;22.60;98.20
4374;DHT22;2201;51.100;6.814;2023-06-22T06:41:43;22.40;98.20
4374;DHT22;2201;51.100;6.814;2023-06-22T06:44:12;22.30;98.20
4374;DHT22;2201;51.100;6.814;2023-06-22T06:46:41;22.20;98.20
4374;DHT22;2201;51.100;6.814;2023-06-22T06:49:10;22.10;98.20
4374;DHT22;2201;51.100;6.814;2023-06-22T06:51:39;22.10;98.20
4374;DHT22;2201;51.100;6.814;2023-06-22T06:54:08;22.00;98.20
4374;DHT22;2201;51.100;6.814;2023-06-22T06:56:35;22.00;98.20
4374;DHT22;2201;51.100;6.814;2023-06-22T06:59:03;22.00;98.20
4374;DHT22;2201;51.100;6.814;2023-06-22T07:01:30;22.10;98.20
4374;DHT22;2201;51.100;6.814;2023-06-22T07:03:59;22.20;98.20
4374;DHT22;2201;51.100;6.814;2023-06-22T07:06:27;22.30;98.20
4374;DHT22;2201;51.100;6.814;2023-06-22T07:08:57;22.40;98.20
4374;DHT22;2201;51.100;6.814;2023-06-22T07:11:27;22.50;98.20
4374;DHT22;2201;51.100;6.814;2023-06-22T07:13:55;22.60;98.20
4374;DHT22;2201;51.100;6.814;2023-06-22T07:16:22;22.80;98.20
4374;DHT22;2201;51.100;6.814;2023-06-22T07:18:51;22.80;98.20
4374;DHT22;2201;51.100;6.814;2023-06-22T07:21:36;22.80;98.20
4374;DHT22;2201;51.100;6.814;2023-06-22T07:24:06;22.80;98.20
4374;DHT22;2201;51.100;6.814;2023-06-22T07:26:36;22.90;98.20
4374;DHT22;2201;51.100;6.814;2023-06-22T07:29:04;23.00;98.20
4374;DHT22;2201;51.100;6.814;2023-06-22T07:31:35;23.20;98.20
4374;DHT22;2201;51.100;6.814;2023-06-22T07:34:04;23.40;98.20
4374;DHT22;2201;51.100;6.814;2023-06-22T07:36:32;23.60;98.20
4374;DHT22;2201;51.100;6.814;2023-06-22T07:39:02;23.80;98.20
4374;DHT22;2201;51.100;6.814;2023-06-22T07:41:47;24.10;98.20
4374;DHT22;2201;51.100;6.814;2023-06-22T07:44:15;24.50;98.20
4374;DHT22;2201;51.100;6.814;2023-06-22T07:46:44;24.90;98.20
4374;DHT22;2201;51.100;6.814;2023-06-22T07:49:13;25.10;98.20
4374;DHT22;2201;51.100;6.814;2023-06-22T07:51:48;25.50;98.20
4374;DHT22;2201;51.100;6.814;2023-06-22T07:54:16;25.80;98.20
4374;DHT22;2201;51.100;6.814;2023-06-22T07:59:30;26.10;98.20
4374;DHT22;2201;51.100;6.814;2023-06-22T08:02:04;26.10;98.20
4374;DHT22;2201;51.100;6.814;2023-06-22T08:04:36;26.20;98.20
4374;DHT22;2201;51.100;6.814;2023-06-22T08:07:05;26.30;98.20
4374;DHT22;2201;51.100;6.814;2023-06-22T08:09:34;26.50;98.20
4374;DHT22;2201;51.100;6.814;2023-06-22T08:12:02;26.70;98.20
4374;DHT22;2201;51.100;6.814;2023-06-22T08:14:32;26.90;97.80
4374;DHT22;2201;51.100;6.814;2023-06-22T08:17:02;26.90;98.20
4374;DHT22;2201;51.100;6.814;2023-06-22T08:19:31;26.80;98.20
4374;DHT22;2201;51.100;6.814;2023-06-22T08:22:09;26.80;98.20
4374;DHT22;2201;51.100;6.814;2023-06-22T08:24:41;27.10;98.20
4374;DHT22;2201;51.100;6.814;2023-06-22T08:27:10;27.30;97.00
4374;DHT22;2201;51.100;6.814;2023-06-22T08:29:41;27.50;96.70
4374;DHT22;2201;51.100;6.814;2023-06-22T08:32:11;27.70;96.10
4374;DHT22;2201;51.100;6.814;2023-06-22T08:34:44;28.00;96.90
4374;DHT22;2201;51.100;6.814;2023-06-22T08:37:16;28.20;95.30
4374;DHT22;2201;51.100;6.814;2023-06-22T08:39:46;28.30;94.80
4374;DHT22;2201;51.100;6.814;2023-06-22T08:42:48;28.50;95.20
4374;DHT22;2201;51.100;6.814;2023-06-22T08:45:28;28.60;94.80
4374;DHT22;2201;51.100;6.814;2023-06-22T08:47:56;28.60;94.30
4374;DHT22;2201;51.100;6.814;2023-06-22T08:50:38;28.80;92.90
4374;DHT22;2201;51.100;6.814;2023-06-22T08:53:09;29.00;93.70
4374;DHT22;2201;51.100;6.814;2023-06-22T08:55:40;29.20;92.60
4374;DHT22;2201;51.100;6.814;2023-06-22T08:58:12;29.40;92.10
4374;DHT22;2201;51.100;6.814;2023-06-22T09:03:36;29.70;90.10
4374;DHT22;2201;51.100;6.814;2023-06-22T09:06:07;30.00;91.20
4374;DHT22;2201;51.100;6.814;2023-06-22T09:08:37;30.10;88.70
4374;DHT22;2201;51.100;6.814;2023-06-22T09:11:05;30.10;86.00
4374;DHT22;2201;51.100;6.814;2023-06-22T09:13:34;29.80;86.50
4374;DHT22;2201;51.100;6.814;2023-06-22T09:16:08;29.80;87.90
4374;DHT22;2201;51.100;6.814;2023-06-22T09:18:38;29.80;88.60
4374;DHT22;2201;51.100;6.814;2023-06-22T09:21:17;29.90;89.20
4374;DHT22;2201;51.100;6.814;2023-06-22T09:23:56;30.10;88.60
4374;DHT22;2201;51.100;6.814;2023-06-22T09:26:25;30.20;87.00
4374;DHT22;2201;51.100;6.814;2023-06-22T09:29:22;30.40;87.40
4374;DHT22;2201;51.100;6.814;2023-06-22T09:32:14;30.60;86.00
4374;DHT22;2201;51.100;6.814;2023-06-22T09:34:54;30.70;85.40
4374;DHT22;2201;51.100;6.814;2023-06-22T09:37:38;30.70;86.70
4374;DHT22;2201;51.100;6.814;2023-06-22T09:40:08;30.80;84.80
4374;DHT22;2201;51.100;6.814;2023-06-22T09:42:37;30.80;84.30
4374;DHT22;2201;51.100;6.814;2023-06-22T09:45:16;31.00;85.00
4374;DHT22;2201;51.100;6.814;2023-06-22T09:47:52;31.00;85.00
4374;DHT22;2201;51.100;6.814;2023-06-22T09:50:24;31.10;84.90
4374;DHT22;2201;51.100;6.814;2023-06-22T09:53:09;31.10;84.90
4374;DHT22;2201;51.100;6.814;2023-06-22T09:55:38;30.90;84.60
4374;DHT22;2201;51.100;6.814;2023-06-22T09:58:09;30.80;85.70
4374;DHT22;2201;51.100;6.814;2023-06-22T10:00:44;30.80;85.20
4374;DHT22;2201;51.100;6.814;2023-06-22T10:03:35;30.80;85.10
4374;DHT22;2201;51.100;6.814;2023-06-22T10:06:07;30.70;84.60
4374;DHT22;2201;51.100;6.814;2023-06-22T10:08:36;30.70;85.50
4374;DHT22;2201;51.100;6.814;2023-06-22T10:11:05;30.60;85.20
4374;DHT22;2201;51.100;6.814;2023-06-22T10:13:33;30.40;85.40
4374;DHT22;2201;51.100;6.814;2023-06-22T10:16:03;30.20;86.00
4374;DHT22;2201;51.100;6.814;2023-06-22T10:18:34;30.00;85.40
4374;DHT22;2201;51.100;6.814;2023-06-22T10:21:04;29.80;86.60
4374;DHT22;2201;51.100;6.814;2023-06-22T10:23:59;29.60;87.30
4374;DHT22;2201;51.100;6.814;2023-06-22T10:26:42;29.50;87.80
4374;DHT22;2201;51.100;6.814;2023-06-22T10:29:10;29.20;88.10
4374;DHT22;2201;51.100;6.814;2023-06-22T10:31:41;29.10;89.40
4374;DHT22;2201;51.100;6.814;2023-06-22T10:34:12;29.00;89.20
4374;DHT22;2201;51.100;6.814;2023-06-22T10:36:41;28.90;91.00
4374;DHT22;2201;51.100;6.814;2023-06-22T10:39:10;28.80;91.80
4374;DHT22;2201;51.100;6.814;2023-06-22T10:41:39;28.60;94.40
4374;DHT22;2201;51.100;6.814;2023-06-22T10:44:08;28.40;96.30
4374;DHT22;2201;51.100;6.814;2023-06-22T10:46:38;28.30;98.00
4374;DHT22;2201;51.100;6.814;2023-06-22T10:49:05;28.10;97.90
4374;DHT22;2201;51.100;6.814;2023-06-22T10:51:36;28.00;98.20
4374;DHT22;2201;51.100;6.814;2023-06-22T10:54:04;27.80;98.20
4374;DHT22;2201;51.100;6.814;2023-06-22T10:56:33;27.60;98.20
4374;DHT22;2201;51.100;6.814;2023-06-22T10:59:02;27.50;98.20
4374;DHT22;2201;51.100;6.814;2023-06-22T11:01:30;27.30;98.20
4374;DHT22;2201;51.100;6.814;2023-06-22T11:03:59;27.20;98.20
4374;DHT22;2201;51.100;6.814;2023-06-22T11:06:27;27.10;98.20
4374;DHT22;2201;51.100;6.814;2023-06-22T11:08:56;26.90;98.20
4374;DHT22;2201;51.100;6.814;2023-06-22T11:11:25;26.70;98.20
4374;DHT22;2201;51.100;6.814;2023-06-22T11:13:54;26.60;98.20
4374;DHT22;2201;51.100;6.814;2023-06-22T11:16:22;26.40;98.20
4374;DHT22;2201;51.100;6.814;2023-06-22T11:18:52;26.30;98.20
4374;DHT22;2201;51.100;6.814;2023-06-22T11:21:21;26.10;98.20
4374;DHT22;2201;51.100;6.814;2023-06-22T11:23:50;26.00;98.20
4374;DHT22;2201;51.100;6.814;2023-06-22T11:26:20;25.90;98.20
4374;DHT22;2201;51.100;6.814;2023-06-22T11:28:48;25.80;98.20
4374;DHT22;2201;51.100;6.814;2023-06-22T11:31:16;25.70;98.20
4374;DHT22;2201;51.100;6.814;2023-06-22T11:33:44;25.60;98.20
4374;DHT22;2201;51.100;6.814;2023-06-22T11:36:13;25.60;98.20
4374;DHT22;2201;51.100;6.814;2023-06-22T11:38:42;25.50;98.20
4374;DHT22;2201;51.100;6.814;2023-06-22T11:41:10;25.40;98.20
4374;DHT22;2201;51.100;6.814;2023-06-22T11:43:40;25.30;98.20
4374;DHT22;2201;51.100;6.814;2023-06-22T11:46:08;25.20;98.20
4374;DHT22;2201;51.100;6.814;2023-06-22T11:48:37;25.10;98.20
4374;DHT22;2201;51.100;6.814;2023-06-22T11:51:07;25.10;98.20
4374;DHT22;2201;51.100;6.814;2023-06-22T11:53:35;25.10;98.20
4374;DHT22;2201;51.100;6.814;2023-06-22T11:56:03;25.10;98.20
4374;DHT22;2201;51.100;6.814;2023-06-22T11:58:31;25.10;98.20
4374;DHT22;2201;51.100;6.814;2023-06-22T12:01:01;25.10;98.20
4374;DHT22;2201;51.100;6.814;2023-06-22T12:03:29;25.10;98.20
4374;DHT22;2201;51.100;6.814;2023-06-22T12:05:57;25.10;98.20
4374;DHT22;2201;51.100;6.814;2023-06-22T12:08:25;25.00;98.20
4374;DHT22;2201;51.100;6.814;2023-06-22T12:10:54;24.90;98.20
4374;DHT22;2201;51.100;6.814;2023-06-22T12:13:23;24.90;98.20
4374;DHT22;2201;51.100;6.814;2023-06-22T12:15:52;24.90;98.20
4374;DHT22;2201;51.100;6.814;2023-06-22T12:18:21;24.90;98.20
4374;DHT22;2201;51.100;6.814;2023-06-22T12:20:51;24.90;98.20
4374;DHT22;2201;51.100;6.814;2023-06-22T12:23:19;25.00;98.20
4374;DHT22;2201;51.100;6.814;2023-06-22T12:25:47;25.10;98.20
4374;DHT22;2201;51.100;6.814;2023-06-22T12:28:19;25.20;98.20
4374;DHT22;2201;51.100;6.814;2023-06-22T12:30:48;25.40;98.20
4374;DHT22;2201;51.100;6.814;2023-06-22T12:33:16;25.60;98.20
4374;DHT22;2201;51.100;6.814;2023-06-22T12:35:52;25.70;98.20
4374;DHT22;2201;51.100;6.814;2023-06-22T12:38:24;25.80;98.20
4374;DHT22;2201;51.100;6.814;2023-06-22T12:41:06;26.00;98.20
4374;DHT22;2201;51.100;6.814;2023-06-22T12:43:37;26.10;98.20
4374;DHT22;2201;51.100;6.814;2023-06-22T12:50:26;26.20;98.20
4374;DHT22;2201;51.100;6.814;2023-06-22T12:52:37;26.30;98.20
4374;DHT22;2201;51.100;6.814;2023-06-22T12:55:16;26.40;98.20
4374;DHT22;2201;51.100;6.814;2023-06-22T13:00:41;26.20;98.20
4374;DHT22;2201;51.100;6.814;2023-06-22T13:03:29;26.20;98.20
4374;DHT22;2201;51.100;6.814;2023-06-22T13:06:07;26.10;98.20
4374;DHT22;2201;51.100;6.814;2023-06-22T13:09:07;26.10;98.20
4374;DHT22;2201;51.100;6.814;2023-06-22T13:11:43;26.10;98.20
4374;DHT22;2201;51.100;6.814;2023-06-22T13:16:54;26.20;98.20
4374;DHT22;2201;51.100;6.814;2023-06-22T13:19:22;26.30;98.20
4374;DHT22;2201;51.100;6.814;2023-06-22T13:31:23;26.60;98.20
4374;DHT22;2201;51.100;6.814;2023-06-22T13:34:12;26.50;98.20
4374;DHT22;2201;51.100;6.814;2023-06-22T13:36:47;26.50;98.20
4374;DHT22;2201;51.100;6.814;2023-06-22T13:39:26;26.40;98.20
4374;DHT22;2201;51.100;6.814;2023-06-22T13:41:58;26.40;98.20
4374;DHT22;2201;51.100;6.814;2023-06-22T13:44:46;26.40;98.20
4374;DHT22;2201;51.100;6.814;2023-06-22T13:47:16;26.40;98.20
4374;DHT22;2201;51.100;6.814;2023-06-22T13:49:46;26.40;98.20
4374;DHT22;2201;51.100;6.814;2023-06-22T13:59:47;26.60;98.20
4374;DHT22;2201;51.100;6.814;2023-06-22T14:02:03;27.00;98.20
4374;DHT22;2201;51.100;6.814;2023-06-22T14:04:50;27.60;98.20
4374;DHT22;2201;51.100;6.814;2023-06-22T14:10:33;27.80;98.20
4374;DHT22;2201;51.100;6.814;2023-06-22T14:13:16;27.90;98.20
4374;DHT22;2201;51.100;6.814;2023-06-22T14:15:49;28.00;98.20
4374;DHT22;2201;51.100;6.814;2023-06-22T14:18:18;27.90;98.20
4374;DHT22;2201;51.100;6.814;2023-06-22T14:21:26;27.60;98.20
4374;DHT22;2201;51.100;6.814;2023-06-22T14:26:59;27.00;98.20
4374;DHT22;2201;51.100;6.814;2023-06-22T14:29:37;26.70;98.20
4374;DHT22;2201;51.100;6.814;2023-06-22T14:32:31;26.50;98.20
4374;DHT22;2201;51.100;6.814;2023-06-22T14:38:47;26.30;98.20
4374;DHT22;2201;51.100;6.814;2023-06-22T14:41:21;26.20;98.20
4374;DHT22;2201;51.100;6.814;2023-06-22T14:44:02;26.20;98.20
4374;DHT22;2201;51.100;6.814;2023-06-22T14:46:38;26.30;98.20
4374;DHT22;2201;51.100;6.814;2023-06-22T14:49:47;26.30;98.20
4374;DHT22;2201;51.100;6.814;2023-06-22T14:52:21;26.30;98.20
4374;DHT22;2201;51.100;6.814;2023-06-22T14:55:10;26.20;98.20
4374;DHT22;2201;51.100;6.814;2023-06-22T14:57:55;26.20;98.20
4374;DHT22;2201;51.100;6.814;2023-06-22T15:00:25;26.20;98.20
4374;DHT22;2201;51.100;6.814;2023-06-22T15:03:16;26.20;98.20
4374;DHT22;2201;51.100;6.814;2023-06-22T15:06:03;26.30;98.20
4374;DHT22;2201;51.100;6.814;2023-06-22T15:08:57;26.40;98.20
4374;DHT22;2201;51.100;6.814;2023-06-22T15:14:59;26.40;98.20
4374;DHT22;2201;51.100;6.814;2023-06-22T15:17:29;26.40;98.20
4374;DHT22;2201;51.100;6.814;2023-06-22T15:20:00;26.40;98.20
4374;DHT22;2201;51.100;6.814;2023-06-22T15:22:28;26.10;98.20
4374;DHT22;2201;51.100;6.814;2023-06-22T15:24:59;25.90;98.20
4374;DHT22;2201;51.100;6.814;2023-06-22T15:31:01;25.70;98.20
4374;DHT22;2201;51.100;6.814;2023-06-22T15:33:34;25.60;98.20
4374;DHT22;2201;51.100;6.814;2023-06-22T15:36:02;25.40;98.20
4374;DHT22;2201;51.100;6.814;2023-06-22T15:38:31;25.30;98.20
4374;DHT22;2201;51.100;6.814;2023-06-22T15:40:58;25.10;98.20
4374;DHT22;2201;51.100;6.814;2023-06-22T15:43:25;25.00;98.20
4374;DHT22;2201;51.100;6.814;2023-06-22T15:45:52;24.80;98.20
4374;DHT22;2201;51.100;6.814;2023-06-22T15:48:21;24.60;98.20
4374;DHT22;2201;51.100;6.814;2023-06-22T15:50:48;24.40;98.20
4374;DHT22;2201;51.100;6.814;2023-06-22T15:53:14;24.20;98.20
4374;DHT22;2201;51.100;6.814;2023-06-22T15:55:41;23.90;98.20
4374;DHT22;2201;51.100;6.814;2023-06-22T15:58:08;23.80;98.20
4374;DHT22;2201;51.100;6.814;2023-06-22T16:00:38;23.60;98.20
4374;DHT22;2201;51.100;6.814;2023-06-22T16:03:05;23.50;98.20
4374;DHT22;2201;51.100;6.814;2023-06-22T16:05:33;23.30;98.20
4374;DHT22;2201;51.100;6.814;2023-06-22T16:08:00;23.30;98.20
4374;DHT22;2201;51.100;6.814;2023-06-22T16:10:26;23.20;98.20
4374;DHT22;2201;51.100;6.814;2023-06-22T16:12:53;23.20;98.20
4374;DHT22;2201;51.100;6.814;2023-06-22T16:15:20;23.10;98.20
4374;DHT22;2201;51.100;6.814;2023-06-22T16:17:47;23.00;98.20
4374;DHT22;2201;51.100;6.814;2023-06-22T16:20:14;22.90;98.20
4374;DHT22;2201;51.100;6.814;2023-06-22T16:22:43;22.80;98.20
4374;DHT22;2201;51.100;6.814;2023-06-22T16:25:11;22.80;98.20
4374;DHT22;2201;51.100;6.814;2023-06-22T16:27:38;22.70;98.20
4374;DHT22;2201;51.100;6.814;2023-06-22T16:30:13;22.60;98.20
4374;DHT22;2201;51.100;6.814;2023-06-22T16:32:49;22.50;98.20
4374;DHT22;2201;51.100;6.814;2023-06-22T16:35:16;22.50;98.20
4374;DHT22;2201;51.100;6.814;2023-06-22T16:37:45;22.40;98.20
4374;DHT22;2201;51.100;6.814;2023-06-22T16:40:12;22.40;98.20
4374;DHT22;2201;51.100;6.814;2023-06-22T16:42:40;22.30;98.20
4374;DHT22;2201;51.100;6.814;2023-06-22T16:45:08;22.30;98.20
4374;DHT22;2201;51.100;6.814;2023-06-22T16:47:35;22.30;98.20
4374;DHT22;2201;51.100;6.814;2023-06-22T16:50:03;22.20;98.20
4374;DHT22;2201;51.100;6.814;2023-06-22T16:52:30;22.20;98.20
4374;DHT22;2201;51.100;6.814;2023-06-22T16:55:00;22.20;98.20
4374;DHT22;2201;51.100;6.814;2023-06-22T16:57:27;22.20;98.20
4374;DHT22;2201;51.100;6.814;2023-06-22T16:59:54;22.20;98.20
4374;DHT22;2201;51.100;6.814;2023-06-22T17:02:23;22.20;98.20
4374;DHT22;2201;51.100;6.814;2023-06-22T17:04:52;22.10;98.20
4374;DHT22;2201;51.100;6.814;2023-06-22T17:07:20;22.10;98.20
4374;DHT22;2201;51.100;6.814;2023-06-22T17:09:49;22.00;98.20
4374;DHT22;2201;51.100;6.814;2023-06-22T17:12:17;22.00;98.20
4374;DHT22;2201;51.100;6.814;2023-06-22T17:14:45;22.00;98.20
4374;DHT22;2201;51.100;6.814;2023-06-22T17:17:14;22.00;98.20
4374;DHT22;2201;51.100;6.814;2023-06-22T17:19:42;22.00;98.20
4374;DHT22;2201;51.100;6.814;2023-06-22T17:22:08;22.00;98.20
4374;DHT22;2201;51.100;6.814;2023-06-22T17:24:36;22.00;98.20